Terminal Aerodrome Forecast
Issued by NWS

Home | Current Version | Previous Version | Text Only | Print | Product List | Glossary On
Versions: 1 2 3 4 5 6 7 8 9 10 11 12
000
FTPA31 PHFO 292338
TAFSTU
TAF
NSTU 292338Z 3000/3024 12010KT P6SM VCSH FEW020 SCT040 BKN100
     FM301200 VRB05KT P6SM VCSH FEW020 SCT040 BKN100=

USA.gov is the U.S. government's official web portal to all federal, state and local government web resources and services.